Time;durP1;ratioP1;P1;durP2;ratioP2;P2;SDS_P1;SDS_P2;PMS_P1;PMS_P2;Temp;Humidity;BMP_temperature;BMP_pressure;BME280_temperature;BME280_humidity;BME280_pressure;Samples;Min_cycle;Max_cycle;Signal;HPM_P1;HPM_P2
2023/05/25 00:01:53;;;;;;;2.33;0.93;;;;;;;14.54;82.92;101691.31;4977565;28;20061;-67
2023/05/25 00:04:20;;;;;;;1.80;0.80;;;;;;;14.51;82.62;101702.84;4979495;28;20624;-67
2023/05/25 00:06:46;;;;;;;1.15;0.95;;;;;;;14.48;83.14;101695.44;5007706;28;20035;-67
2023/05/25 00:09:11;;;;;;;1.85;0.90;;;;;;;14.48;83.29;101703.56;5005906;28;20445;-68
2023/05/25 00:11:37;;;;;;;1.20;1.02;;;;;;;14.43;83.50;101705.41;5009027;28;20490;-66
2023/05/25 00:14:03;;;;;;;1.95;0.90;;;;;;;14.32;83.18;101712.50;5005009;28;20030;-66
2023/05/25 00:16:36;;;;;;;1.38;1.15;;;;;;;14.28;83.77;101708.16;5007916;28;20026;-67
2023/05/25 00:19:04;;;;;;;3.47;1.40;;;;;;;14.21;84.09;101711.44;5012054;28;20038;-67
2023/05/25 00:21:32;;;;;;;1.52;1.02;;;;;;;14.14;83.81;101718.63;5008125;28;20115;-67
2023/05/25 00:23:58;;;;;;;2.22;1.27;;;;;;;13.95;84.13;101715.88;5008608;28;20037;-67
2023/05/25 00:26:24;;;;;;;1.35;1.10;;;;;;;13.99;84.23;101706.69;5007033;28;20042;-69
2023/05/25 00:28:50;;;;;;;2.85;1.17;;;;;;;13.92;84.40;101716.56;5000364;28;20033;-67
2023/05/25 00:31:16;;;;;;;1.98;0.85;;;;;;;13.93;84.25;101720.84;5009048;28;20022;-68
2023/05/25 00:33:41;;;;;;;1.67;1.10;;;;;;;13.96;84.10;101722.84;5008054;28;20034;-68
2023/05/25 00:36:10;;;;;;;5.15;0.90;;;;;;;13.98;84.03;101725.97;5010056;28;20045;-68
2023/05/25 00:38:35;;;;;;;1.98;1.00;;;;;;;13.96;84.09;101723.63;5011713;28;20038;-68
2023/05/25 00:41:01;;;;;;;1.15;0.90;;;;;;;13.97;84.32;101719.81;5008045;28;20200;-68
2023/05/25 00:43:26;;;;;;;2.00;0.85;;;;;;;13.96;84.23;101718.22;5024719;28;20037;-68
2023/05/25 00:45:52;;;;;;;2.72;1.08;;;;;;;13.99;84.64;101712.13;5010290;28;20112;-67
2023/05/25 00:48:18;;;;;;;2.58;1.67;;;;;;;13.97;84.74;101714.38;4992990;28;20034;-68
2023/05/25 00:50:44;;;;;;;1.45;1.08;;;;;;;13.94;84.39;101714.28;5007551;28;20092;-68
2023/05/25 00:53:12;;;;;;;1.38;0.85;;;;;;;13.95;84.36;101715.88;5011756;28;20045;-68
2023/05/25 00:55:52;;;;;;;1.63;1.00;;;;;;;13.93;84.70;101726.25;5013086;28;20042;-68
2023/05/25 00:58:20;;;;;;;1.30;1.05;;;;;;;13.95;84.63;101719.38;4996133;28;20499;-67
2023/05/25 01:00:52;;;;;;;0.93;0.80;;;;;;;13.87;85.42;101714.91;4985234;28;20121;-68
2023/05/25 01:03:20;;;;;;;;;;;;;;;13.86;85.67;101715.28;5007874;28;20076;-67
2023/05/25 01:05:50;;;;;;;0.43;0.40;;;;;;;13.89;85.17;101718.06;5001297;28;19913;-68
2023/05/25 01:08:18;;;;;;;1.98;1.13;;;;;;;13.86;85.18;101713.31;5002156;28;20288;-68
2023/05/25 01:10:47;;;;;;;1.55;0.68;;;;;;;13.84;85.27;101714.84;5005873;28;20403;-68
2023/05/25 01:13:16;;;;;;;1.95;1.05;;;;;;;13.81;85.29;101715.50;5003894;28;20085;-67
2023/05/25 01:15:42;;;;;;;1.30;0.77;;;;;;;13.69;85.19;101713.69;5006352;28;20030;-67
2023/05/25 01:18:08;;;;;;;2.58;1.23;;;;;;;13.66;84.92;101705.47;5008902;28;20083;-67
2023/05/25 01:20:34;;;;;;;6.15;1.40;;;;;;;13.53;86.05;101715.59;5012088;28;20060;-67
2023/05/25 01:23:09;;;;;;;1.10;1.00;;;;;;;13.56;85.50;101704.09;5008446;28;20053;-67
2023/05/25 01:25:49;;;;;;;2.85;1.52;;;;;;;13.29;86.09;101721.16;4999440;28;20042;-67
2023/05/25 01:28:20;;;;;;;4.10;1.67;;;;;;;13.30;86.36;101712.69;5002656;28;20112;-65
2023/05/25 01:30:48;;;;;;;;;;;;;;;13.40;86.33;101716.81;5011879;28;20030;-68
2023/05/25 01:33:16;;;;;;;0.90;0.70;;;;;;;13.38;85.38;101713.66;5014650;28;19939;-66
2023/05/25 01:35:43;;;;;;;1.45;1.35;;;;;;;13.34;85.36;101727.09;5000830;28;20072;-66
2023/05/25 01:38:10;;;;;;;3.15;1.38;;;;;;;13.33;85.76;101712.00;4985060;28;20045;-68
2023/05/25 01:40:35;;;;;;;5.15;1.67;;;;;;;13.30;85.22;101709.97;4996990;28;20041;-67
2023/05/25 01:43:02;;;;;;;1.85;1.05;;;;;;;13.30;85.11;101715.38;5005884;28;20053;-66
2023/05/25 01:45:28;;;;;;;2.45;1.27;;;;;;;13.31;85.23;101714.28;5007167;28;20042;-67
2023/05/25 01:48:01;;;;;;;1.63;0.95;;;;;;;13.23;85.08;101714.41;5007251;28;20029;-68
2023/05/25 01:50:32;;;;;;;0.98;0.77;;;;;;;13.19;85.12;101708.13;5011535;28;20038;-67
2023/05/25 01:53:17;;;;;;;1.52;0.93;;;;;;;13.22;85.13;101712.88;4996716;28;20045;-69
2023/05/25 01:55:51;;;;;;;1.27;0.65;;;;;;;13.18;85.13;101709.28;4999572;28;20030;-68
2023/05/25 01:58:18;;;;;;;2.58;1.25;;;;;;;13.15;84.47;101710.75;4996487;28;20407;-67
2023/05/25 02:00:46;;;;;;;2.78;1.35;;;;;;;13.01;85.24;101707.63;4981302;28;20372;-68
2023/05/25 02:03:12;;;;;;;4.15;1.70;;;;;;;13.02;85.05;101714.63;5004034;28;20034;-67
2023/05/25 02:05:40;;;;;;;1.33;0.82;;;;;;;12.99;85.31;101719.94;4999040;28;20033;-67
2023/05/25 02:08:06;;;;;;;1.80;1.00;;;;;;;12.94;86.43;101712.03;5002624;28;20385;-68
2023/05/25 02:10:31;;;;;;;2.03;1.33;;;;;;;12.96;86.04;101723.31;4998212;28;20105;-66
2023/05/25 02:12:57;;;;;;;4.88;1.42;;;;;;;12.93;86.40;101716.66;4985072;28;20026;-67
2023/05/25 02:15:23;;;;;;;2.50;1.17;;;;;;;12.88;86.53;101721.53;4984662;28;20030;-68
2023/05/25 02:17:49;;;;;;;5.20;0.95;;;;;;;12.83;86.24;101717.16;5008216;28;20061;-67
2023/05/25 02:20:14;;;;;;;2.30;1.10;;;;;;;12.90;86.22;101719.25;4984955;28;20088;-68
2023/05/25 02:22:40;;;;;;;2.35;1.15;;;;;;;12.83;85.95;101721.78;5001380;28;20022;-68
2023/05/25 02:25:07;;;;;;;1.25;0.75;;;;;;;12.84;86.61;101716.03;4991811;28;20058;-68
2023/05/25 02:27:34;;;;;;;1.50;1.30;;;;;;;12.88;85.98;101725.03;4977380;28;20035;-67
2023/05/25 02:30:00;;;;;;;1.67;0.93;;;;;;;12.88;85.86;101718.81;4987788;28;20056;-67
2023/05/25 02:32:28;;;;;;;5.40;1.17;;;;;;;12.78;85.91;101719.31;4994675;28;20018;-67
2023/05/25 02:34:53;;;;;;;1.45;1.33;;;;;;;12.81;86.10;101727.53;4986331;28;20030;-67
2023/05/25 02:37:20;;;;;;;1.95;1.48;;;;;;;12.75;85.41;101717.28;4994758;28;20037;-68
2023/05/25 02:39:46;;;;;;;2.13;1.15;;;;;;;12.75;85.76;101718.09;4994694;28;20031;-66
2023/05/25 02:42:12;;;;;;;2.45;1.42;;;;;;;12.75;85.40;101718.09;5004012;28;20049;-67
2023/05/25 02:44:37;;;;;;;1.20;0.68;;;;;;;12.70;85.11;101719.09;4996979;28;20041;-67
2023/05/25 02:47:03;;;;;;;1.23;1.02;;;;;;;12.72;85.22;101721.47;5007728;28;20040;-66
2023/05/25 02:49:29;;;;;;;1.35;0.90;;;;;;;12.72;85.61;101720.69;5009419;28;20498;-64
2023/05/25 02:51:54;;;;;;;4.88;2.85;;;;;;;12.65;85.30;101716.66;5004243;28;20112;-67
2023/05/25 02:54:20;;;;;;;2.97;1.17;;;;;;;12.63;85.21;101721.63;4994696;28;20033;-68
2023/05/25 02:56:46;;;;;;;4.70;1.63;;;;;;;12.61;85.57;101715.75;5010185;28;20029;-67
2023/05/25 02:59:14;;;;;;;2.67;1.10;;;;;;;12.54;85.91;101712.84;4968952;28;20034;-67
2023/05/25 03:01:39;;;;;;;1.38;1.02;;;;;;;12.45;86.30;101716.78;5004114;28;20029;-68
2023/05/25 03:04:25;;;;;;;1.90;1.40;;;;;;;12.50;86.47;101717.34;5006650;28;20026;-67
2023/05/25 03:06:51;;;;;;;1.92;1.05;;;;;;;12.53;86.43;101722.09;4967896;28;20050;-67
2023/05/25 03:09:20;;;;;;;1.83;1.35;;;;;;;12.59;86.11;101728.81;4949158;28;20039;-67
2023/05/25 03:11:48;;;;;;;2.17;1.13;;;;;;;12.63;86.00;101732.41;4966419;28;20531;-68
2023/05/25 03:14:16;;;;;;;2.65;1.02;;;;;;;12.64;86.46;101730.50;4956885;28;20079;-68
2023/05/25 03:16:46;;;;;;;1.50;0.88;;;;;;;12.62;86.59;101741.66;4969159;28;20094;-67
2023/05/25 03:19:13;;;;;;;2.17;1.30;;;;;;;12.62;86.69;101743.56;4966569;28;20050;-66
2023/05/25 03:21:38;;;;;;;1.88;1.58;;;;;;;12.61;86.90;101742.00;4952978;28;20455;-68
2023/05/25 03:24:05;;;;;;;2.15;0.95;;;;;;;12.64;87.54;101739.38;4970400;28;20201;-67
2023/05/25 03:26:31;;;;;;;1.98;1.17;;;;;;;12.76;87.49;101748.59;4965142;28;20507;-68
2023/05/25 03:28:57;;;;;;;2.63;1.13;;;;;;;12.85;87.41;101749.25;4946157;28;20110;-68
2023/05/25 03:31:23;;;;;;;2.90;1.33;;;;;;;12.92;88.05;101754.84;4957529;28;20679;-65
2023/05/25 03:33:48;;;;;;;1.17;1.10;;;;;;;12.95;88.30;101757.66;4952301;28;20118;-68
2023/05/25 03:36:16;;;;;;;2.45;1.40;;;;;;;13.13;87.90;101755.47;4966183;28;20492;-68
2023/05/25 03:38:43;;;;;;;6.00;1.58;;;;;;;13.14;89.09;101747.03;4958328;28;20041;-67
2023/05/25 03:41:08;;;;;;;1.63;1.33;;;;;;;13.22;89.14;101759.59;4954370;28;20381;-68
2023/05/25 03:43:34;;;;;;;2.05;1.00;;;;;;;13.35;88.77;101757.66;4973991;28;20104;-67
2023/05/25 03:46:00;;;;;;;1.15;0.98;;;;;;;13.43;88.78;101752.06;4998946;28;20030;-66
2023/05/25 03:48:26;;;;;;;5.18;1.25;;;;;;;13.46;89.24;101764.13;4989475;28;20569;-66
2023/05/25 03:50:52;;;;;;;3.70;1.25;;;;;;;13.49;89.56;101758.03;5001265;28;20061;-66
2023/05/25 03:53:38;;;;;;;1.90;1.10;;;;;;;13.50;90.16;101759.59;5011672;28;20431;-63
2023/05/25 03:56:06;;;;;;;3.58;1.60;;;;;;;13.53;90.49;101758.88;4959974;28;20395;-66
2023/05/25 03:58:32;;;;;;;1.65;0.95;;;;;;;13.54;90.34;101774.00;4966155;28;20043;-66
2023/05/25 04:00:57;;;;;;;2.42;1.63;;;;;;;13.50;91.02;101763.09;4943422;28;20039;-65
2023/05/25 04:03:23;;;;;;;2.03;1.10;;;;;;;13.54;91.31;101760.47;4948937;28;20461;-66
2023/05/25 04:05:48;;;;;;;1.23;0.75;;;;;;;13.54;90.95;101774.81;4936764;28;20408;-67
2023/05/25 04:08:18;;;;;;;2.28;1.77;;;;;;;13.62;90.73;101770.38;4962122;28;20664;-67
2023/05/25 04:10:45;;;;;;;1.88;1.25;;;;;;;13.65;90.75;101777.78;4968109;28;20037;-68
2023/05/25 04:13:10;;;;;;;5.38;1.60;;;;;;;13.68;91.05;101774.38;4963251;28;20114;-67
2023/05/25 04:15:36;;;;;;;2.78;1.25;;;;;;;13.65;90.60;101782.41;4952699;28;20064;-66
2023/05/25 04:18:11;;;;;;;1.52;1.25;;;;;;;13.69;90.62;101785.97;4957416;28;20042;-67
2023/05/25 04:20:36;;;;;;;1.88;1.30;;;;;;;13.73;90.77;101786.88;4970829;28;20047;-67
2023/05/25 04:23:03;;;;;;;3.65;1.05;;;;;;;13.66;91.06;101776.66;4954731;28;20066;-65
2023/05/25 04:25:28;;;;;;;1.40;0.73;;;;;;;13.66;91.23;101783.97;4967257;28;20031;-67
2023/05/25 04:27:55;;;;;;;1.73;1.00;;;;;;;13.70;90.89;101788.38;4966296;28;20122;-67
2023/05/25 04:30:38;;;;;;;3.80;0.95;;;;;;;13.74;90.72;101794.66;4962486;28;20121;-66
2023/05/25 04:33:10;;;;;;;3.47;1.70;;;;;;;13.68;91.27;101796.03;4999690;28;20072;-66
2023/05/25 04:35:57;;;;;;;2.75;1.17;;;;;;;13.70;90.83;101801.09;5012720;28;20060;-67
2023/05/25 04:38:24;;;;;;;1.50;1.40;;;;;;;13.59;91.16;101798.91;5006652;28;20034;-68
2023/05/25 04:41:10;;;;;;;1.02;0.93;;;;;;;13.63;91.59;101806.34;5008836;22;20076;-65
2023/05/25 04:43:39;;;;;;;1.45;1.10;;;;;;;13.74;91.37;101797.38;4881650;29;20048;-67
2023/05/25 04:46:06;;;;;;;3.78;0.90;;;;;;;13.78;91.05;101806.34;4890450;29;20452;-65
2023/05/25 04:48:33;;;;;;;1.67;0.90;;;;;;;13.76;91.00;101797.81;4895393;29;20461;-66
2023/05/25 04:51:01;;;;;;;1.38;0.88;;;;;;;13.79;90.37;101809.84;4886231;29;20071;-66
2023/05/25 04:53:28;;;;;;;2.20;1.23;;;;;;;13.79;90.81;101816.06;4898112;29;20498;-66
2023/05/25 04:55:54;;;;;;;1.90;1.08;;;;;;;13.68;91.21;101819.63;4896478;29;20040;-66
2023/05/25 04:58:23;;;;;;;1.13;1.02;;;;;;;13.79;90.82;101817.97;4887831;29;20033;-66
2023/05/25 05:00:48;;;;;;;1.70;1.40;;;;;;;13.81;91.12;101813.78;4899285;29;20091;-65
2023/05/25 05:03:14;;;;;;;2.92;1.40;;;;;;;13.85;90.87;101814.66;4886044;29;20036;-64
2023/05/25 05:05:39;;;;;;;1.40;1.02;;;;;;;13.90;90.56;101813.63;4896415;29;20028;-65
2023/05/25 05:08:08;;;;;;;1.33;1.20;;;;;;;13.95;90.30;101818.78;4893987;29;20108;-64
2023/05/25 05:10:34;;;;;;;2.10;1.15;;;;;;;14.02;90.33;101816.25;4889322;29;20061;-67
2023/05/25 05:13:00;;;;;;;2.28;1.10;;;;;;;14.02;90.35;101819.75;4892032;29;20044;-65
2023/05/25 05:15:25;;;;;;;1.05;0.80;;;;;;;14.15;89.84;101820.47;4909309;29;20146;-65
2023/05/25 05:17:53;;;;;;;3.75;0.95;;;;;;;14.11;89.67;101817.63;4884570;29;20150;-64
2023/05/25 05:20:19;;;;;;;1.25;1.15;;;;;;;14.11;89.81;101823.06;4922425;28;20150;-64
2023/05/25 05:22:45;;;;;;;3.30;0.68;;;;;;;14.15;89.71;101818.50;4948767;28;20376;-64
2023/05/25 05:25:10;;;;;;;1.13;0.90;;;;;;;14.21;89.49;101821.75;4945151;28;20027;-65
2023/05/25 05:27:36;;;;;;;3.85;1.50;;;;;;;14.40;90.06;101825.34;4962120;28;20035;-64
2023/05/25 05:30:08;;;;;;;0.90;0.68;;;;;;;14.63;89.43;101820.09;4953566;28;20114;-65
2023/05/25 05:32:33;;;;;;;1.10;0.88;;;;;;;14.85;88.73;101821.31;4966200;28;20478;-65
2023/05/25 05:35:00;;;;;;;1.42;0.95;;;;;;;15.02;87.74;101831.81;4946954;28;20041;-68
2023/05/25 05:37:39;;;;;;;1.17;0.90;;;;;;;15.16;86.89;101829.38;4944676;28;20026;-66
2023/05/25 05:40:05;;;;;;;2.28;1.27;;;;;;;15.26;86.08;101828.81;4942712;28;20179;-66
2023/05/25 05:42:33;;;;;;;4.68;1.00;;;;;;;15.42;85.61;101837.69;4948965;28;20031;-64
2023/05/25 05:45:02;;;;;;;1.27;0.82;;;;;;;15.53;84.12;101835.16;4965097;28;20074;-68
2023/05/25 05:47:27;;;;;;;1.33;1.23;;;;;;;15.50;83.21;101844.84;4967096;28;20090;-65
2023/05/25 05:49:52;;;;;;;1.92;1.13;;;;;;;15.43;83.17;101839.25;4970475;28;20030;-64
2023/05/25 05:52:18;;;;;;;6.22;0.80;;;;;;;15.47;82.99;101840.13;4948737;28;20042;-65
2023/05/25 05:54:43;;;;;;;1.58;1.00;;;;;;;15.45;82.53;101845.09;4943410;28;20019;-66
2023/05/25 05:57:11;;;;;;;0.90;0.82;;;;;;;15.42;82.74;101848.56;4953139;28;20041;-65
2023/05/25 05:59:37;;;;;;;2.05;0.70;;;;;;;15.47;82.26;101845.53;4956258;28;20376;-64
2023/05/25 06:02:03;;;;;;;0.85;0.70;;;;;;;15.47;82.34;101842.81;4941047;28;20030;-65
2023/05/25 06:04:29;;;;;;;2.80;0.88;;;;;;;15.60;82.26;101846.19;4957630;28;20050;-64
2023/05/25 06:06:54;;;;;;;1.77;0.68;;;;;;;15.63;82.10;101843.53;4969128;28;20054;-68
2023/05/25 06:09:20;;;;;;;2.10;1.48;;;;;;;15.64;81.68;101839.66;4948237;28;20027;-65
2023/05/25 06:11:46;;;;;;;1.70;0.60;;;;;;;15.77;82.00;101843.81;4947289;28;20046;-69
2023/05/25 06:14:31;;;;;;;6.63;0.93;;;;;;;15.87;81.31;101851.34;4950071;28;20037;-64
2023/05/25 06:17:00;;;;;;;5.88;1.42;;;;;;;16.13;79.67;101854.16;4891961;29;20118;-69
2023/05/25 06:19:26;;;;;;;3.53;0.70;;;;;;;16.34;78.85;101861.88;4901848;29;20140;-65
2023/05/25 06:21:51;;;;;;;3.60;0.85;;;;;;;16.47;76.85;101862.47;4887410;29;20063;-65
2023/05/25 06:24:20;;;;;;;2.50;1.40;;;;;;;16.58;76.83;101869.69;4900900;29;20048;-66
2023/05/25 06:26:46;;;;;;;0.80;0.63;;;;;;;16.61;75.47;101868.16;4907607;29;20103;-65
2023/05/25 06:29:13;;;;;;;0.70;0.52;;;;;;;16.63;74.61;101865.84;4907644;29;20040;-66
2023/05/25 06:31:39;;;;;;;0.55;0.40;;;;;;;16.70;74.06;101874.13;4894471;29;20586;-64
2023/05/25 06:34:05;;;;;;;1.58;0.60;;;;;;;16.81;74.41;101870.41;4887934;29;20055;-67
2023/05/25 06:36:31;;;;;;;0.63;0.50;;;;;;;16.96;74.23;101869.47;4890964;29;20091;-65
2023/05/25 06:38:57;;;;;;;1.15;0.52;;;;;;;16.95;73.49;101865.19;4909924;29;20099;-64
2023/05/25 06:41:22;;;;;;;0.32;0.30;;;;;;;17.12;72.24;101872.00;4906916;29;20143;-64
2023/05/25 06:43:48;;;;;;;0.47;0.47;;;;;;;17.20;71.01;101864.72;4907833;29;20072;-65
2023/05/25 06:46:22;;;;;;;1.40;0.50;;;;;;;17.31;71.52;101871.88;4903612;29;20693;-67
2023/05/25 06:48:47;;;;;;;5.15;0.60;;;;;;;17.34;71.09;101871.16;4905422;29;20123;-65
2023/05/25 06:51:13;;;;;;;0.60;0.35;;;;;;;17.54;71.27;101875.28;4904982;29;20061;-66
2023/05/25 06:53:38;;;;;;;0.50;0.40;;;;;;;17.70;69.18;101878.59;4924139;28;20042;-65
2023/05/25 06:56:04;;;;;;;3.65;0.80;;;;;;;17.80;69.82;101871.69;4952830;28;20060;-67
2023/05/25 06:58:30;;;;;;;7.15;0.47;;;;;;;18.09;67.90;101867.31;4948813;28;20041;-66
2023/05/25 07:00:56;;;;;;;0.65;0.30;;;;;;;18.23;67.93;101875.63;4964015;28;20042;-68
2023/05/25 07:03:21;;;;;;;7.70;0.65;;;;;;;18.33;66.67;101885.84;4967513;28;20049;-67
2023/05/25 07:05:47;;;;;;;1.92;0.50;;;;;;;18.49;64.53;101881.72;4965073;28;20031;-68
2023/05/25 07:08:12;;;;;;;3.13;0.40;;;;;;;18.72;65.26;101881.47;4947213;28;20023;-66
2023/05/25 07:10:38;;;;;;;1.48;0.63;;;;;;;18.94;62.46;101885.94;4957067;28;20109;-66
2023/05/25 07:13:03;;;;;;;2.03;0.60;;;;;;;19.01;62.26;101879.75;4963319;28;20050;-67
2023/05/25 07:15:28;;;;;;;0.73;0.73;;;;;;;19.21;62.06;101884.53;4960770;28;20047;-66
2023/05/25 07:17:56;;;;;;;1.10;0.93;;;;;;;19.40;60.73;101886.97;4969625;28;20122;-66
2023/05/25 07:20:22;;;;;;;1.60;0.55;;;;;;;19.50;61.25;101885.44;4946375;28;20042;-67
2023/05/25 07:22:48;;;;;;;1.85;0.57;;;;;;;19.61;59.16;101894.47;4958536;28;20117;-66
2023/05/25 07:25:13;;;;;;;4.38;0.50;;;;;;;19.50;57.09;101880.78;4959465;28;20157;-68
2023/05/25 07:27:39;;;;;;;1.38;0.30;;;;;;;19.52;57.85;101888.59;4967959;28;20387;-66
2023/05/25 07:30:06;;;;;;;1.05;0.40;;;;;;;19.60;57.54;101882.78;4942561;28;20038;-68
2023/05/25 07:32:31;;;;;;;3.10;1.30;;;;;;;19.69;57.82;101876.91;4963940;28;20110;-67
2023/05/25 07:35:17;;;;;;;0.40;0.20;;;;;;;19.97;58.03;101884.41;4962326;28;20127;-67
2023/05/25 07:37:42;;;;;;;3.40;0.77;;;;;;;19.88;57.53;101884.00;4857908;29;20049;-68
2023/05/25 07:40:09;;;;;;;0.68;0.50;;;;;;;19.78;58.46;101889.06;4847094;29;20068;-68
2023/05/25 07:42:35;;;;;;;4.22;0.77;;;;;;;19.98;57.58;101891.44;4849586;29;20507;-66
2023/05/25 07:45:01;;;;;;;3.03;0.70;;;;;;;20.10;57.74;101902.81;4876880;29;20426;-65
2023/05/25 07:47:27;;;;;;;0.65;0.45;;;;;;;20.05;57.21;101900.47;4865898;29;20487;-64
2023/05/25 07:49:53;;;;;;;4.80;0.43;;;;;;;20.07;57.60;101909.06;4870071;29;20060;-68
2023/05/25 07:52:19;;;;;;;0.75;0.70;;;;;;;20.08;57.41;101904.34;4864908;29;20044;-68
2023/05/25 07:54:44;;;;;;;0.75;0.50;;;;;;;20.18;57.47;101903.59;4861548;29;20053;-68
2023/05/25 07:57:10;;;;;;;1.67;0.68;;;;;;;20.51;56.00;101906.78;4861268;29;20029;-66
2023/05/25 07:59:35;;;;;;;3.80;0.65;;;;;;;20.72;56.33;101910.66;4866710;29;20045;-68
2023/05/25 08:02:03;;;;;;;1.55;0.52;;;;;;;20.77;54.84;101904.81;4848283;29;20591;-68
2023/05/25 08:04:32;;;;;;;0.80;0.28;;;;;;;20.82;53.74;101910.66;4872505;29;20041;-67
2023/05/25 08:06:58;;;;;;;0.98;0.65;;;;;;;20.93;54.08;101916.91;4855123;29;20049;-67
2023/05/25 08:09:23;;;;;;;0.32;0.20;;;;;;;21.27;53.07;101909.03;4862607;29;20923;-68
2023/05/25 08:11:49;;;;;;;0.57;0.32;;;;;;;21.42;52.84;101908.59;4874138;29;20135;-67
2023/05/25 08:14:15;;;;;;;0.70;0.20;;;;;;;21.51;53.06;101913.63;4906688;28;20053;-69
2023/05/25 08:16:40;;;;;;;0.38;0.30;;;;;;;21.35;52.16;101910.56;4951973;28;20067;-67
2023/05/25 08:19:06;;;;;;;3.97;0.50;;;;;;;21.52;51.50;101918.69;4967936;28;20062;-68
2023/05/25 08:21:33;;;;;;;0.98;0.47;;;;;;;21.60;52.89;101915.94;4970129;28;20043;-66
2023/05/25 08:24:02;;;;;;;2.35;0.52;;;;;;;21.75;51.79;101915.47;4939910;28;20130;-67
2023/05/25 08:26:29;;;;;;;1.10;0.45;;;;;;;21.98;51.55;101921.25;4952399;28;20085;-67
2023/05/25 08:28:55;;;;;;;1.67;0.40;;;;;;;21.88;50.34;101915.81;4960626;28;20165;-69
2023/05/25 08:31:21;;;;;;;1.10;0.60;;;;;;;21.98;50.01;101920.47;4959860;28;20394;-68
2023/05/25 08:33:46;;;;;;;1.10;0.80;;;;;;;21.96;50.19;101911.84;4964932;28;20447;-69
2023/05/25 08:36:12;;;;;;;1.63;0.50;;;;;;;21.94;51.45;101922.44;4962064;28;20454;-65
2023/05/25 08:38:37;;;;;;;0.65;0.47;;;;;;;22.08;49.91;101925.13;4946045;29;20027;-69
2023/05/25 08:41:04;;;;;;;0.85;0.38;;;;;;;22.34;48.63;101939.03;4956742;28;20059;-67
2023/05/25 08:43:31;;;;;;;1.52;0.50;;;;;;;22.57;47.75;101924.75;4961367;28;20050;-68
2023/05/25 08:46:04;;;;;;;0.20;0.17;;;;;;;22.45;47.14;101926.00;4972391;28;20514;-65
2023/05/25 08:48:32;;;;;;;2.25;0.90;;;;;;;22.54;47.77;101931.06;4965679;28;20030;-66
2023/05/25 08:51:06;;;;;;;1.75;0.50;;;;;;;22.66;47.47;101930.59;4966777;28;20023;-69
2023/05/25 08:53:35;;;;;;;1.90;0.63;;;;;;;22.73;48.36;101927.78;4963218;28;20038;-69
2023/05/25 08:56:12;;;;;;;1.45;0.50;;;;;;;22.82;49.40;101932.81;4962625;28;20027;-68
2023/05/25 08:58:45;;;;;;;1.35;0.85;;;;;;;22.52;48.97;101943.63;4970551;28;20423;-69
2023/05/25 09:01:14;;;;;;;1.33;0.65;;;;;;;22.59;48.14;101932.63;4970052;28;20077;-68
2023/05/25 09:03:40;;;;;;;1.08;0.50;;;;;;;22.76;48.54;101943.47;4965861;28;20042;-68
2023/05/25 09:06:06;;;;;;;2.47;1.27;;;;;;;22.63;49.18;101947.88;4950271;28;20039;-67
2023/05/25 09:08:32;;;;;;;0.85;0.73;;;;;;;22.73;49.48;101947.00;4964890;28;20027;-68
2023/05/25 09:11:01;;;;;;;0.55;0.40;;;;;;;22.88;47.95;101944.94;4966511;28;20186;-68
2023/05/25 09:13:26;;;;;;;1.98;0.73;;;;;;;23.07;46.30;101950.59;4967115;28;20495;-68
2023/05/25 09:15:53;;;;;;;1.23;0.50;;;;;;;23.29;45.69;101954.69;4963192;28;20031;-69
2023/05/25 09:18:19;;;;;;;0.80;0.47;;;;;;;23.56;45.55;101949.31;4930107;28;20396;-68
2023/05/25 09:20:44;;;;;;;2.30;0.40;;;;;;;23.37;45.77;101955.44;4953701;28;20042;-67
2023/05/25 09:23:10;;;;;;;1.83;0.80;;;;;;;23.55;45.15;101952.47;4939133;28;20031;-67
2023/05/25 09:25:37;;;;;;;1.27;0.55;;;;;;;23.34;45.29;101952.72;4948042;28;20118;-68
2023/05/25 09:28:02;;;;;;;3.17;0.52;;;;;;;23.38;46.01;101948.75;4954974;28;20392;-68
2023/05/25 09:30:51;;;;;;;0.40;0.30;;;;;;;23.51;46.57;101949.75;4958224;28;20042;-68
2023/05/25 09:33:16;;;;;;;3.53;0.50;;;;;;;23.49;44.99;101954.09;4860183;29;20721;-65
2023/05/25 09:35:43;;;;;;;1.00;0.60;;;;;;;23.89;44.52;101953.19;4872232;29;20057;-67
2023/05/25 09:38:08;;;;;;;1.88;0.50;;;;;;;23.98;44.32;101947.97;4873929;29;20481;-66
2023/05/25 09:40:34;;;;;;;1.42;0.60;;;;;;;24.00;44.34;101953.84;4874309;29;20076;-67
2023/05/25 09:43:04;;;;;;;3.17;0.68;;;;;;;24.04;43.98;101954.63;4870559;29;20071;-70
2023/05/25 09:45:30;;;;;;;0.82;0.80;;;;;;;24.12;44.01;101956.03;4875250;29;20068;-67
2023/05/25 09:47:56;;;;;;;1.90;0.40;;;;;;;24.25;43.96;101959.81;4873984;29;20445;-67
2023/05/25 09:50:22;;;;;;;0.68;0.50;;;;;;;24.39;43.91;101964.31;4875547;29;20446;-66
2023/05/25 09:52:48;;;;;;;1.55;0.88;;;;;;;24.44;42.70;101961.09;4879055;29;20082;-68
2023/05/25 09:55:14;;;;;;;1.50;0.65;;;;;;;24.59;43.25;101962.41;4873037;29;20091;-65
2023/05/25 09:57:40;;;;;;;4.75;0.60;;;;;;;24.75;42.94;101968.88;4864533;29;20059;-69
2023/05/25 10:00:07;;;;;;;2.25;0.52;;;;;;;24.80;42.64;101970.34;4867554;29;20021;-67
2023/05/25 10:02:37;;;;;;;3.80;0.73;;;;;;;24.88;42.46;101958.00;4874414;29;20136;-67
2023/05/25 10:05:03;;;;;;;0.47;0.35;;;;;;;25.06;42.14;101958.47;4877238;29;20601;-67
2023/05/25 10:07:30;;;;;;;2.83;0.60;;;;;;;25.25;42.41;101957.72;4871581;29;20534;-66
2023/05/25 10:10:04;;;;;;;2.75;0.77;;;;;;;25.21;41.90;101965.28;4910268;28;20054;-66
2023/05/25 10:12:31;;;;;;;1.40;0.77;;;;;;;25.20;42.17;101957.44;4961816;28;20051;-67
2023/05/25 10:15:01;;;;;;;0.73;0.30;;;;;;;25.34;41.78;101957.19;4942494;28;20035;-68
2023/05/25 10:17:30;;;;;;;2.78;0.73;;;;;;;25.36;42.31;101961.03;4962115;28;20077;-67
2023/05/25 10:20:00;;;;;;;4.38;0.73;;;;;;;25.45;42.00;101966.03;4961759;28;20102;-66
2023/05/25 10:22:32;;;;;;;2.67;0.70;;;;;;;25.64;41.78;101968.00;4967298;28;20092;-67
2023/05/25 10:25:09;;;;;;;0.93;0.20;;;;;;;25.60;40.77;101965.34;4941797;28;20031;-67
2023/05/25 10:27:46;;;;;;;2.42;0.57;;;;;;;25.89;39.08;101971.81;4956059;28;20049;-65
2023/05/25 10:30:13;;;;;;;0.70;0.45;;;;;;;25.87;39.81;101973.44;4939908;28;20035;-65
2023/05/25 10:32:40;;;;;;;0.70;0.47;;;;;;;25.81;38.66;101975.16;4967214;28;20376;-66
2023/05/25 10:35:06;;;;;;;2.63;0.70;;;;;;;25.79;38.96;101977.56;4945101;28;20516;-67
2023/05/25 10:37:32;;;;;;;1.75;0.55;;;;;;;25.87;40.25;101978.97;4966561;28;20149;-66
2023/05/25 10:40:02;;;;;;;0.40;0.35;;;;;;;26.05;39.71;101973.84;4966214;28;20043;-66
2023/05/25 10:42:28;;;;;;;1.85;0.65;;;;;;;26.29;39.57;101974.47;4959528;28;20034;-66
2023/05/25 10:44:56;;;;;;;1.42;0.40;;;;;;;26.16;39.74;101979.94;4966524;28;20034;-66
2023/05/25 10:47:22;;;;;;;0.60;0.45;;;;;;;26.06;38.09;101975.41;5012668;23;20066;-68
2023/05/25 10:49:55;;;;;;;1.60;0.77;;;;;;;25.73;39.52;101973.72;5007950;28;20075;-66
2023/05/25 10:52:21;;;;;;;1.98;0.40;;;;;;;26.07;40.89;101974.22;5011090;28;20048;-67
2023/05/25 10:54:47;;;;;;;1.38;0.32;;;;;;;25.93;39.70;101971.72;4999071;28;20041;-65
2023/05/25 10:57:21;;;;;;;1.17;0.73;;;;;;;25.96;38.39;101957.06;5006200;28;20087;-68
2023/05/25 10:59:54;;;;;;;1.48;0.40;;;;;;;26.10;39.60;101964.28;5010529;28;20117;-67
2023/05/25 11:02:22;;;;;;;0.47;0.43;;;;;;;26.31;39.26;101972.06;5016740;28;20550;-68
2023/05/25 11:04:48;;;;;;;3.92;1.48;;;;;;;26.31;39.22;101958.25;5007367;28;20486;-67
2023/05/25 11:07:15;;;;;;;1.17;0.52;;;;;;;26.44;38.83;101961.91;5011185;28;20030;-67
2023/05/25 11:09:43;;;;;;;3.50;0.90;;;;;;;26.42;38.68;101958.81;4997636;28;20113;-68
2023/05/25 11:12:19;;;;;;;1.35;0.80;;;;;;;26.52;38.81;101964.06;5006979;28;20046;-67
2023/05/25 11:15:16;;;;;;;5.13;0.75;;;;;;;26.60;37.97;101956.34;4987502;28;20022;-66
2023/05/25 11:17:57;;;;;;;0.47;0.40;;;;;;;26.32;38.79;101957.84;5013512;28;20042;-67
2023/05/25 11:20:27;;;;;;;3.50;0.73;;;;;;;26.14;39.47;101959.44;5014222;28;20040;-65
2023/05/25 11:22:52;;;;;;;2.03;0.55;;;;;;;26.24;39.64;101950.94;5011601;28;20028;-68
2023/05/25 11:25:37;;;;;;;0.80;0.30;;;;;;;26.24;38.57;101948.16;5005750;28;20037;-67
2023/05/25 11:28:05;;;;;;;0.88;0.50;;;;;;;26.16;39.20;101952.28;5002206;28;20565;-66
2023/05/25 11:30:31;;;;;;;1.25;0.73;;;;;;;26.04;39.21;101950.16;5004904;28;20440;-68